Morrison, CO (80465)

2:49 AM MDT on August 30, 2014 (GMT -0600)
Lower Valley/Post Office | Change Station
CLOSE
Current Station
Personal Weather Station
Location: Indian Hills, CO
Elevation: 6920 ft
Nearby Weather Stations

Elev 6920 ft 39.62 °N, 105.24 °W | Updated 16 seconds ago

Clear
Clear
42.6 °F
Feels Like 43 °F
N
0.0
Wind Variable Wind from WNW
Gusts 0.0 mph

Today
High -- | Low -- °F
--% Chance of Precip.
Yesterday
High -- | Low -- °F
Precip. -- in
6:27 AM 7:34 PM
Waxing Crescent, 20% visible
Pressure 29.97 in
Visibility 10.0 miles
Clouds Few 13000 ft
Scattered Clouds 20000 ft
Windchill 43 °F
Dew Point 42 °F
Humidity 96%
Rainfall 0.00 in
Snow Depth Not available.
UV 0 out of 12
Pollen 10.40 out of 12
PM2.5 Good
Flu Activity Not available.
METAR KAPA 300653Z 21012KT 10SM FEW130 SCT200 16/06 A3017 RMK AO2 SLP148 T01610061 402670100

More Conditions Fewer Conditions

Pressure 29.97 in
Visibility 10.0 miles
Clouds Few 13000 ft
Scattered Clouds 20000 ft
Windchill 43 °F
Dew Point 42 °F
Humidity 96%
Rainfall 0.00 in
Snow Depth Not available.
UV 0 out of 12
Pollen 10.40 out of 12
PM2.5 Good
Flu Activity Not available.
METAR KAPA 300653Z 21012KT 10SM FEW130 SCT200 16/06 A3017 RMK AO2 SLP148 T01610061 402670100

More Conditions Fewer Conditions

10-Day Weather Forecast

Almanac

Astronomy

Aug. 30, 2014 Rise Set
Actual Time 6:27 AM MDT 7:34 PM MDT
Civil Twilight 5:59 AM MDT 8:02 PM MDT
Nautical Twilight 5:26 AM MDT 8:35 PM MDT
Astronomical Twilight 4:51 AM MDT 9:10 PM MDT
Moon 11:16 AM MDT 10:12 PM MDT
Length of Visible Light 14h 03m
Length of Day
13h 07m
Tomorrow will be 2m 29s shorter.
Waxing Crescent, 20% of the Moon is Illuminated
Today
Waxing Crescent
Sep 2
First Quarter
Sep 8
Full
Sep 15
Last Quarter
Sep 24
New

Today's Extremes

State Highs State Lows

Community

WunderPhotos

Upload Photos

1,748,474 photos uploaded!

Nearby

Air Quality

  Air Quality AQ Index Pollutant
Yesterday Good
OZONE
Yesterday Good
PM10
Current Good
PM2.5
Saturday Good
OZONE
Saturday Good
PM2.5

Snow Depth

Station Depth Elevation
Echo Lake 0 in 10600 ft
Jackwhacker Gulch 1 in 10960 ft
Berthoud Summit 0 in 11300 ft
Niwot 1 in 9910 ft
University Camp 0 in 10300 ft

Earthquake Activity

City Distance Mag. Time & Date
No recent earthquake activity has been reported nearby.
Minimum magnitude displayed is 2.5.

Coastal Water Temperatures

Place Temperature
No Stations Reporting

Nearby Weather Stations